Athens, Vermont
Current Conditions -  °F | °C
As of 3:54 PM on Sunday 21 Dec 2014 (Local Time) from KVSF Reporting Station
Overcast Overcast  
Wind Chill: 30°   Ceiling: 3800
Heat Index: 30°   Visibility: 10mi
Dew Point: 26°   Wind: 0mph
Humidity: 85%   Direction: NA
Pressure: 30.3"   Gusts: NA
Location:  43.2811°N, 72.6352°W
Report Text: KVSF 212054Z AUTO 00000KT 10SM OVC038 M01/M03 A3030 RMK AO2 SLP270 60000 T10111033 55000 TSNO
Loading
Personal Weather Stations






























Interactive Weather Map New forecast layout! Learn more

10-Day Weather Forecast

Advertisements
Track Severe Weather on mobile